Hlavní strana
METAR-TAF:

METAR-TAF

Letiště :

Såtenäs, Švédsko

zeměpisná šířka: 58-26N, zeměpisná délka: 012-42E, výška: 54 m

Aktuální stav počasí

Zpráva byla vytvořena před 36 minutami, v 07:20 UTC
Severovýchodní vítr 5 kt
Teplota 13°C
Vlhkost vzduchu 72%
Tlak 1014 hPa
Viditelnost 10 km a více
Žádná oblačnost pod 1500 m, nevyskytují se cumulonimby.

METAR: ESIB 260720Z 05005KT CAVOK 13/08 Q1014

Čas: 09:56 (07:56 UTC)

Předpověď počasí

Zpráva byla vytvořena před 3 hodinami a 6 minutami, v 04:50 UTC
Předpověď platná od 26 v 05 UTC do 26 v 14 UTC
Severovýchodní vítr 6 kt
Viditelnost 10 km a více
Žádná oblačnost pod 1500 m, nevyskytují se cumulonimby.
Změna
od 26 v 09 UTC do 26 v 12 UTC
Severovýchodní vítr 8 kt s nárazy do 18 kt

TAF: ESIB 260450Z 2605/2614 05006KT CAVOK BECMG 2609/2612 04008G18KT RMK MIL

Stav a předpovědi počasí z více než 4 000 letišť (zprávy METAR a TAF).

Červené a žluté tečky na mapě představují dostupné meteorologické stanice.

Když kurzor umístíte na tečku, zobrazí se název stanice.

Pak kliknutím zobrazíte stav a předpověď počasí.

Chcete-li změnit mapu, kliknutím na zelené tlačítko se znaménkem +mapu přiblížíte, kliknutím na zelené tlačítko se znaménkem – mapu oddálíte a kliknutím na zelené šipky přejdete na sousední mapy.


METAR-TAF: